sensor_id;sensor_type;location;lat;lon;timestamp;pressure;altitude;pressure_sealevel;temperature;humidity
65718;BME280;52445;52.466;-1.016;2022-09-25T00:00:46;100718.91;;;10.17;67.24
65718;BME280;52445;52.466;-1.016;2022-09-25T00:03:14;100717.16;;;10.16;67.73
65718;BME280;52445;52.466;-1.016;2022-09-25T00:05:43;100717.16;;;10.16;67.33
65718;BME280;52445;52.466;-1.016;2022-09-25T00:08:12;100708.53;;;10.14;67.14
65718;BME280;52445;52.466;-1.016;2022-09-25T00:10:41;100708.53;;;10.14;66.87
65718;BME280;52445;52.466;-1.016;2022-09-25T00:13:08;100710.22;;;10.12;67.03
65718;BME280;52445;52.466;-1.016;2022-09-25T00:15:36;100708.47;;;10.11;66.83
65718;BME280;52445;52.466;-1.016;2022-09-25T00:18:02;100715.34;;;10.09;67.45
65718;BME280;52445;52.466;-1.016;2022-09-25T00:20:29;100710.16;;;10.09;67.49
65718;BME280;52445;52.466;-1.016;2022-09-25T00:22:56;100705.84;;;10.08;67.43
65718;BME280;52445;52.466;-1.016;2022-09-25T00:25:23;100711.91;;;10.07;67.27
65718;BME280;52445;52.466;-1.016;2022-09-25T00:27:53;100711.00;;;10.05;67.57
65718;BME280;52445;52.466;-1.016;2022-09-25T00:30:21;100715.31;;;10.02;67.63
65718;BME280;52445;52.466;-1.016;2022-09-25T00:32:49;100712.69;;;10.01;67.69
65718;BME280;52445;52.466;-1.016;2022-09-25T00:35:15;100714.41;;;10.00;67.77
65718;BME280;52445;52.466;-1.016;2022-09-25T00:37:42;100717.00;;;10.00;67.68
65718;BME280;52445;52.466;-1.016;2022-09-25T00:40:09;100720.44;;;9.99;67.41
65718;BME280;52445;52.466;-1.016;2022-09-25T00:42:36;100711.78;;;9.97;67.96
65718;BME280;52445;52.466;-1.016;2022-09-25T00:45:06;100725.59;;;9.96;67.85
65718;BME280;52445;52.466;-1.016;2022-09-25T00:52:55;100724.66;;;9.91;67.79
65718;BME280;52445;52.466;-1.016;2022-09-25T00:55:24;100722.94;;;9.90;67.82
65718;BME280;52445;52.466;-1.016;2022-09-25T00:57:53;100720.31;;;9.87;67.87
65718;BME280;52445;52.466;-1.016;2022-09-25T01:00:22;100722.00;;;9.85;67.39
65718;BME280;52445;52.466;-1.016;2022-09-25T01:02:51;100725.44;;;9.84;67.71
65718;BME280;52445;52.466;-1.016;2022-09-25T01:05:20;100726.97;;;9.66;68.35
65718;BME280;52445;52.466;-1.016;2022-09-25T01:07:48;100717.56;;;9.71;67.96
65718;BME280;52445;52.466;-1.016;2022-09-25T01:10:17;100725.31;;;9.71;67.78
65718;BME280;52445;52.466;-1.016;2022-09-25T01:12:47;100727.00;;;9.69;67.79
65718;BME280;52445;52.466;-1.016;2022-09-25T01:15:18;100716.63;;;9.68;67.95
65718;BME280;52445;52.466;-1.016;2022-09-25T01:31:05;100709.66;;;9.62;69.24
65718;BME280;52445;52.466;-1.016;2022-09-25T01:33:38;100718.28;;;9.61;69.28
65718;BME280;52445;52.466;-1.016;2022-09-25T01:36:14;100714.81;;;9.57;69.19
65718;BME280;52445;52.466;-1.016;2022-09-25T01:41:58;100714.72;;;9.51;69.30
65718;BME280;52445;52.466;-1.016;2022-09-25T01:44:31;100706.09;;;9.50;69.15
65718;BME280;52445;52.466;-1.016;2022-09-25T01:47:11;100705.16;;;9.45;69.04
65718;BME280;52445;52.466;-1.016;2022-09-25T01:49:44;100706.88;;;9.45;69.17
65718;BME280;52445;52.466;-1.016;2022-09-25T01:52:16;100706.88;;;9.42;69.65
65718;BME280;52445;52.466;-1.016;2022-09-25T01:54:49;100702.50;;;9.39;69.42
65718;BME280;52445;52.466;-1.016;2022-09-25T02:00:00;100706.44;;;9.79;68.96
65718;BME280;52445;52.466;-1.016;2022-09-25T02:02:37;100707.81;;;9.48;69.70
65718;BME280;52445;52.466;-1.016;2022-09-25T02:05:11;100712.03;;;9.42;69.87
65718;BME280;52445;52.466;-1.016;2022-09-25T02:07:44;100710.25;;;9.37;70.27
65718;BME280;52445;52.466;-1.016;2022-09-25T02:10:19;100705.91;;;9.35;69.81
65718;BME280;52445;52.466;-1.016;2022-09-25T02:12:50;100702.44;;;9.33;69.81
65718;BME280;52445;52.466;-1.016;2022-09-25T02:18:02;100711.03;;;9.30;70.27
65718;BME280;52445;52.466;-1.016;2022-09-25T02:20:58;100715.28;;;9.28;69.72
65718;BME280;52445;52.466;-1.016;2022-09-25T02:23:35;100709.22;;;9.24;70.24
65718;BME280;52445;52.466;-1.016;2022-09-25T02:26:07;100700.59;;;9.24;70.67
65718;BME280;52445;52.466;-1.016;2022-09-25T02:28:40;100700.56;;;9.22;69.84
65718;BME280;52445;52.466;-1.016;2022-09-25T02:31:10;100711.78;;;9.23;70.07
65718;BME280;52445;52.466;-1.016;2022-09-25T02:33:38;100710.91;;;9.22;70.72
65718;BME280;52445;52.466;-1.016;2022-09-25T02:36:04;100710.84;;;9.19;70.42
65718;BME280;52445;52.466;-1.016;2022-09-25T02:38:32;100697.06;;;9.17;70.39
65718;BME280;52445;52.466;-1.016;2022-09-25T02:41:27;100698.72;;;9.12;70.85
65718;BME280;52445;52.466;-1.016;2022-09-25T02:52:18;100703.84;;;9.09;70.69
65718;BME280;52445;52.466;-1.016;2022-09-25T02:54:55;100708.13;;;9.08;70.58
65718;BME280;52445;52.466;-1.016;2022-09-25T03:00:04;100702.91;;;9.05;70.38
65718;BME280;52445;52.466;-1.016;2022-09-25T03:02:34;100703.78;;;9.04;70.07
65718;BME280;52445;52.466;-1.016;2022-09-25T03:05:02;100702.88;;;9.02;71.08
65718;BME280;52445;52.466;-1.016;2022-09-25T03:07:30;100693.41;;;9.03;70.27
65718;BME280;52445;52.466;-1.016;2022-09-25T03:10:17;100698.53;;;8.99;70.33
65718;BME280;52445;52.466;-1.016;2022-09-25T03:12:45;100694.22;;;8.98;70.59
65718;BME280;52445;52.466;-1.016;2022-09-25T03:15:11;100691.59;;;8.97;70.72
65718;BME280;52445;52.466;-1.016;2022-09-25T03:17:38;100695.94;;;8.98;70.66
65718;BME280;52445;52.466;-1.016;2022-09-25T03:20:06;100690.75;;;8.98;71.29
65718;BME280;52445;52.466;-1.016;2022-09-25T03:22:35;100689.91;;;8.97;70.66
65718;BME280;52445;52.466;-1.016;2022-09-25T03:25:03;100686.47;;;8.98;70.82
65718;BME280;52445;52.466;-1.016;2022-09-25T03:27:30;100692.53;;;8.99;71.12
65718;BME280;52445;52.466;-1.016;2022-09-25T03:29:57;100689.06;;;8.98;70.50
65718;BME280;52445;52.466;-1.016;2022-09-25T03:32:23;100685.59;;;8.98;70.93
65718;BME280;52445;52.466;-1.016;2022-09-25T03:34:50;100684.75;;;8.97;70.70
65718;BME280;52445;52.466;-1.016;2022-09-25T03:37:17;100691.59;;;8.97;71.04
65718;BME280;52445;52.466;-1.016;2022-09-25T03:39:43;100676.97;;;8.96;70.41
65718;BME280;52445;52.466;-1.016;2022-09-25T03:42:10;100683.84;;;8.95;70.95
65718;BME280;52445;52.466;-1.016;2022-09-25T03:44:36;100677.78;;;8.93;71.55
65718;BME280;52445;52.466;-1.016;2022-09-25T03:47:03;100674.31;;;8.91;70.34
65718;BME280;52445;52.466;-1.016;2022-09-25T03:49:29;100680.34;;;8.92;70.87
65718;BME280;52445;52.466;-1.016;2022-09-25T03:51:56;100679.41;;;8.88;69.82
65718;BME280;52445;52.466;-1.016;2022-09-25T03:54:22;100680.25;;;8.85;70.07
65718;BME280;52445;52.466;-1.016;2022-09-25T03:56:49;100680.19;;;8.82;70.80
65718;BME280;52445;52.466;-1.016;2022-09-25T03:59:17;100672.44;;;8.79;70.02
65718;BME280;52445;52.466;-1.016;2022-09-25T04:01:43;100671.56;;;8.79;70.17
65718;BME280;52445;52.466;-1.016;2022-09-25T04:04:12;100675.81;;;8.77;69.78
65718;BME280;52445;52.466;-1.016;2022-09-25T04:06:39;100664.56;;;8.71;69.63
65718;BME280;52445;52.466;-1.016;2022-09-25T04:09:06;100674.00;;;8.69;70.22
65718;BME280;52445;52.466;-1.016;2022-09-25T04:11:33;100667.09;;;8.68;70.44
65718;BME280;52445;52.466;-1.016;2022-09-25T04:14:00;100671.38;;;8.66;69.77
65718;BME280;52445;52.466;-1.016;2022-09-25T04:16:27;100667.03;;;8.65;69.84
65718;BME280;52445;52.466;-1.016;2022-09-25T04:18:56;100669.63;;;8.64;70.17
65718;BME280;52445;52.466;-1.016;2022-09-25T04:21:23;100665.25;;;8.61;70.36
65718;BME280;52445;52.466;-1.016;2022-09-25T04:23:50;100675.56;;;8.58;70.33
65718;BME280;52445;52.466;-1.016;2022-09-25T04:26:36;100677.22;;;8.56;69.80
65718;BME280;52445;52.466;-1.016;2022-09-25T04:29:03;100670.34;;;8.55;70.15
65718;BME280;52445;52.466;-1.016;2022-09-25T04:31:30;100671.97;;;8.53;70.27
65718;BME280;52445;52.466;-1.016;2022-09-25T04:33:58;100671.13;;;8.52;70.97
65718;BME280;52445;52.466;-1.016;2022-09-25T04:36:24;100668.53;;;8.51;70.64
65718;BME280;52445;52.466;-1.016;2022-09-25T04:38:51;100675.41;;;8.52;70.33
65718;BME280;52445;52.466;-1.016;2022-09-25T04:41:17;100681.44;;;8.51;70.33
65718;BME280;52445;52.466;-1.016;2022-09-25T04:43:46;100675.34;;;8.48;70.23
65718;BME280;52445;52.466;-1.016;2022-09-25T04:46:14;100676.22;;;8.47;71.10
65718;BME280;52445;52.466;-1.016;2022-09-25T04:48:46;100679.66;;;8.46;70.73
65718;BME280;52445;52.466;-1.016;2022-09-25T04:51:13;100677.88;;;8.45;70.93
65718;BME280;52445;52.466;-1.016;2022-09-25T04:53:40;100676.16;;;8.44;70.39
65718;BME280;52445;52.466;-1.016;2022-09-25T04:56:07;100676.13;;;8.43;70.37
65718;BME280;52445;52.466;-1.016;2022-09-25T04:58:45;100677.00;;;8.43;70.77
65718;BME280;52445;52.466;-1.016;2022-09-25T05:01:13;100677.00;;;8.43;70.03
65718;BME280;52445;52.466;-1.016;2022-09-25T05:03:40;100668.34;;;8.41;70.43
65718;BME280;52445;52.466;-1.016;2022-09-25T05:06:08;100669.22;;;8.40;70.34
65718;BME280;52445;52.466;-1.016;2022-09-25T05:08:34;100668.34;;;8.38;70.04
65718;BME280;52445;52.466;-1.016;2022-09-25T05:11:01;100666.56;;;8.37;70.58
65718;BME280;52445;52.466;-1.016;2022-09-25T05:13:29;100667.38;;;8.33;70.65
65718;BME280;52445;52.466;-1.016;2022-09-25T05:15:56;100674.22;;;8.31;70.73
65718;BME280;52445;52.466;-1.016;2022-09-25T05:18:23;100671.59;;;8.28;70.85
65718;BME280;52445;52.466;-1.016;2022-09-25T05:20:50;100679.28;;;8.25;71.04
65718;BME280;52445;52.466;-1.016;2022-09-25T05:23:19;100676.63;;;8.21;71.14
65718;BME280;52445;52.466;-1.016;2022-09-25T05:25:54;100673.19;;;8.19;70.03
65718;BME280;52445;52.466;-1.016;2022-09-25T05:28:21;100679.19;;;8.20;70.28
65718;BME280;52445;52.466;-1.016;2022-09-25T05:30:50;100670.59;;;8.19;70.48
65718;BME280;52445;52.466;-1.016;2022-09-25T05:33:16;100668.03;;;8.19;70.00
65718;BME280;52445;52.466;-1.016;2022-09-25T05:35:45;100668.03;;;8.19;70.37
65718;BME280;52445;52.466;-1.016;2022-09-25T05:38:11;100671.47;;;8.21;70.57
65718;BME280;52445;52.466;-1.016;2022-09-25T05:40:38;100668.91;;;8.21;69.95
65718;BME280;52445;52.466;-1.016;2022-09-25T05:43:05;100662.94;;;8.26;70.70
65718;BME280;52445;52.466;-1.016;2022-09-25T05:45:32;100669.03;;;8.29;70.38
65718;BME280;52445;52.466;-1.016;2022-09-25T05:48:04;100657.84;;;8.29;70.79
65718;BME280;52445;52.466;-1.016;2022-09-25T05:50:32;100659.63;;;8.33;70.28
65718;BME280;52445;52.466;-1.016;2022-09-25T05:53:01;100654.53;;;8.36;70.16
65718;BME280;52445;52.466;-1.016;2022-09-25T05:55:29;100663.16;;;8.38;70.64
65718;BME280;52445;52.466;-1.016;2022-09-25T05:58:03;100657.16;;;8.39;70.17
65718;BME280;52445;52.466;-1.016;2022-09-25T06:00:32;100656.34;;;8.43;70.95
65718;BME280;52445;52.466;-1.016;2022-09-25T06:03:00;100664.13;;;8.45;69.92
65718;BME280;52445;52.466;-1.016;2022-09-25T06:05:27;100657.25;;;8.47;70.45
65718;BME280;52445;52.466;-1.016;2022-09-25T06:07:54;100649.53;;;8.48;69.76
65718;BME280;52445;52.466;-1.016;2022-09-25T06:10:21;100661.66;;;8.53;70.59
65718;BME280;52445;52.466;-1.016;2022-09-25T06:12:48;100654.75;;;8.52;70.15
65718;BME280;52445;52.466;-1.016;2022-09-25T06:15:14;100663.44;;;8.54;70.98
65718;BME280;52445;52.466;-1.016;2022-09-25T06:17:41;100657.44;;;8.55;70.58
65718;BME280;52445;52.466;-1.016;2022-09-25T06:20:08;100660.06;;;8.58;70.40
65718;BME280;52445;52.466;-1.016;2022-09-25T06:22:41;100656.63;;;8.59;70.40
65718;BME280;52445;52.466;-1.016;2022-09-25T06:25:09;100646.34;;;8.62;70.96
65718;BME280;52445;52.466;-1.016;2022-09-25T06:27:36;100649.81;;;8.64;70.97
65718;BME280;52445;52.466;-1.016;2022-09-25T06:30:03;100650.75;;;8.69;71.05
65718;BME280;52445;52.466;-1.016;2022-09-25T06:32:31;100655.13;;;8.73;71.63
65718;BME280;52445;52.466;-1.016;2022-09-25T06:34:57;100648.31;;;8.79;71.07
65718;BME280;52445;52.466;-1.016;2022-09-25T06:37:24;100646.66;;;8.84;70.67
65718;BME280;52445;52.466;-1.016;2022-09-25T06:39:50;100647.59;;;8.89;71.32
65718;BME280;52445;52.466;-1.016;2022-09-25T06:42:17;100647.63;;;8.94;70.98
65718;BME280;52445;52.466;-1.016;2022-09-25T06:44:43;100657.19;;;8.96;71.14
65718;BME280;52445;52.466;-1.016;2022-09-25T06:47:10;100658.94;;;9.00;71.17
65718;BME280;52445;52.466;-1.016;2022-09-25T06:49:44;100658.13;;;9.05;70.39
65718;BME280;52445;52.466;-1.016;2022-09-25T06:52:11;100664.25;;;9.11;71.09
65718;BME280;52445;52.466;-1.016;2022-09-25T06:54:38;100664.31;;;9.16;70.99
65718;BME280;52445;52.466;-1.016;2022-09-25T06:57:10;100659.22;;;9.24;70.73
65718;BME280;52445;52.466;-1.016;2022-09-25T06:59:38;100657.59;;;9.31;70.98
65718;BME280;52445;52.466;-1.016;2022-09-25T07:02:05;100662.88;;;9.40;70.78
65718;BME280;52445;52.466;-1.016;2022-09-25T07:04:52;100666.38;;;9.45;70.87
65718;BME280;52445;52.466;-1.016;2022-09-25T07:07:19;100656.16;;;9.55;70.40
65718;BME280;52445;52.466;-1.016;2022-09-25T07:09:47;100655.34;;;9.62;70.59
65718;BME280;52445;52.466;-1.016;2022-09-25T07:12:14;100663.19;;;9.68;70.48
65718;BME280;52445;52.466;-1.016;2022-09-25T07:14:43;100658.09;;;9.74;70.28
65718;BME280;52445;52.466;-1.016;2022-09-25T07:17:13;100659.88;;;9.82;70.23
65718;BME280;52445;52.466;-1.016;2022-09-25T07:19:39;100656.50;;;9.89;70.23
65718;BME280;52445;52.466;-1.016;2022-09-25T07:22:06;100660.03;;;9.97;70.00
65718;BME280;52445;52.466;-1.016;2022-09-25T07:24:32;100668.75;;;10.06;70.02
65718;BME280;52445;52.466;-1.016;2022-09-25T07:26:59;100652.41;;;10.11;70.29
65718;BME280;52445;52.466;-1.016;2022-09-25T07:29:25;100658.50;;;10.18;69.88
65718;BME280;52445;52.466;-1.016;2022-09-25T07:31:52;100665.47;;;10.25;69.83
65718;BME280;52445;52.466;-1.016;2022-09-25T07:34:19;100662.09;;;10.33;69.95
65718;BME280;52445;52.466;-1.016;2022-09-25T07:36:46;100662.13;;;10.39;70.17
65718;BME280;52445;52.466;-1.016;2022-09-25T07:39:12;100662.22;;;10.47;69.92
65718;BME280;52445;52.466;-1.016;2022-09-25T07:41:43;100652.78;;;10.55;70.20
65718;BME280;52445;52.466;-1.016;2022-09-25T07:44:10;100650.22;;;10.61;69.92
65718;BME280;52445;52.466;-1.016;2022-09-25T07:46:54;100656.34;;;10.70;70.02
65718;BME280;52445;52.466;-1.016;2022-09-25T07:49:20;100653.78;;;10.77;69.85
65718;BME280;52445;52.466;-1.016;2022-09-25T07:51:47;100655.59;;;10.88;69.90
65718;BME280;52445;52.466;-1.016;2022-09-25T07:54:13;100657.34;;;10.98;69.10
65718;BME280;52445;52.466;-1.016;2022-09-25T07:56:40;100656.56;;;11.12;69.39
65718;BME280;52445;52.466;-1.016;2022-09-25T07:59:06;100650.59;;;11.28;69.67
65718;BME280;52445;52.466;-1.016;2022-09-25T08:01:33;100647.19;;;11.42;69.46
65718;BME280;52445;52.466;-1.016;2022-09-25T08:04:06;100645.47;;;11.56;68.24
65718;BME280;52445;52.466;-1.016;2022-09-25T08:06:33;100648.97;;;11.68;68.75
65718;BME280;52445;52.466;-1.016;2022-09-25T08:09:00;100650.72;;;11.78;68.92
65718;BME280;52445;52.466;-1.016;2022-09-25T08:11:33;100651.63;;;11.88;68.24
65718;BME280;52445;52.466;-1.016;2022-09-25T08:14:00;100657.69;;;11.98;68.46
65718;BME280;52445;52.466;-1.016;2022-09-25T08:16:27;100650.78;;;12.06;68.21
65718;BME280;52445;52.466;-1.016;2022-09-25T08:18:53;100651.66;;;12.16;67.53
65718;BME280;52445;52.466;-1.016;2022-09-25T08:21:20;100652.53;;;12.26;66.93
65718;BME280;52445;52.466;-1.016;2022-09-25T08:23:49;100662.94;;;12.34;68.03
65718;BME280;52445;52.466;-1.016;2022-09-25T08:26:17;100657.72;;;12.42;67.14
65718;BME280;52445;52.466;-1.016;2022-09-25T08:28:44;100662.94;;;12.51;67.47
65718;BME280;52445;52.466;-1.016;2022-09-25T08:31:11;100658.59;;;12.61;67.12
65718;BME280;52445;52.466;-1.016;2022-09-25T08:33:44;100657.69;;;12.73;67.45
65718;BME280;52445;52.466;-1.016;2022-09-25T08:36:11;100657.69;;;12.85;66.42
65718;BME280;52445;52.466;-1.016;2022-09-25T08:38:38;100650.69;;;12.98;66.04
65718;BME280;52445;52.466;-1.016;2022-09-25T08:41:29;100656.72;;;13.10;66.06
65718;BME280;52445;52.466;-1.016;2022-09-25T08:49:11;100658.28;;;13.59;63.99
65718;BME280;52445;52.466;-1.016;2022-09-25T08:51:42;100660.00;;;13.65;63.66
65718;BME280;52445;52.466;-1.016;2022-09-25T08:54:17;100658.22;;;13.69;63.80
65718;BME280;52445;52.466;-1.016;2022-09-25T08:56:44;100653.00;;;13.75;63.83
65718;BME280;52445;52.466;-1.016;2022-09-25T08:59:23;100651.22;;;13.82;63.98
65718;BME280;52445;52.466;-1.016;2022-09-25T09:01:56;100651.13;;;13.91;63.42
65718;BME280;52445;52.466;-1.016;2022-09-25T09:07:09;100641.41;;;14.17;62.89
65718;BME280;52445;52.466;-1.016;2022-09-25T09:12:44;100647.84;;;14.77;61.80
65718;BME280;52445;52.466;-1.016;2022-09-25T09:17:53;100635.03;;;15.32;59.88
65718;BME280;52445;52.466;-1.016;2022-09-25T09:20:28;100643.50;;;15.50;59.79
65718;BME280;52445;52.466;-1.016;2022-09-25T09:22:58;100636.38;;;15.61;59.14
65718;BME280;52445;52.466;-1.016;2022-09-25T09:25:30;100634.59;;;15.63;58.24
65718;BME280;52445;52.466;-1.016;2022-09-25T09:41:30;100627.69;;;16.19;56.52
65718;BME280;52445;52.466;-1.016;2022-09-25T09:50:03;100616.25;;;16.74;52.69
65718;BME280;52445;52.466;-1.016;2022-09-25T09:52:38;100614.97;;;16.93;53.29
65718;BME280;52445;52.466;-1.016;2022-09-25T09:55:24;100616.50;;;17.07;52.98
65718;BME280;52445;52.466;-1.016;2022-09-25T09:57:55;100612.88;;;17.14;52.48
65718;BME280;52445;52.466;-1.016;2022-09-25T10:00:23;100607.34;;;17.27;52.99
65718;BME280;52445;52.466;-1.016;2022-09-25T10:05:41;100603.75;;;17.70;52.10
65718;BME280;52445;52.466;-1.016;2022-09-25T10:08:09;100610.22;;;17.93;51.23
65718;BME280;52445;52.466;-1.016;2022-09-25T10:10:38;100609.09;;;18.04;51.35
65718;BME280;52445;52.466;-1.016;2022-09-25T10:13:26;100600.56;;;17.95;49.70
65718;BME280;52445;52.466;-1.016;2022-09-25T10:21:40;100597.84;;;17.62;50.53
65718;BME280;52445;52.466;-1.016;2022-09-25T10:24:07;100585.78;;;17.55;49.67
65718;BME280;52445;52.466;-1.016;2022-09-25T10:26:36;100583.03;;;17.61;50.34
65718;BME280;52445;52.466;-1.016;2022-09-25T10:29:25;100579.66;;;17.92;50.21
65718;BME280;52445;52.466;-1.016;2022-09-25T10:32:02;100574.53;;;18.24;49.75
65718;BME280;52445;52.466;-1.016;2022-09-25T10:34:30;100575.03;;;18.37;49.12
65718;BME280;52445;52.466;-1.016;2022-09-25T10:36:57;100569.50;;;18.49;48.91
65718;BME280;52445;52.466;-1.016;2022-09-25T10:39:30;100557.09;;;18.55;49.50
65718;BME280;52445;52.466;-1.016;2022-09-25T10:42:38;100555.38;;;18.54;47.15
65718;BME280;52445;52.466;-1.016;2022-09-25T10:47:57;100540.84;;;18.42;47.83
65718;BME280;52445;52.466;-1.016;2022-09-25T10:50:45;100535.91;;;18.31;47.57
65718;BME280;52445;52.466;-1.016;2022-09-25T10:53:30;100531.50;;;18.31;48.96
65718;BME280;52445;52.466;-1.016;2022-09-25T10:56:06;100530.56;;;18.34;48.55
65718;BME280;52445;52.466;-1.016;2022-09-25T10:58:55;100524.34;;;18.38;48.12
65718;BME280;52445;52.466;-1.016;2022-09-25T11:01:31;100521.44;;;18.47;48.57
65718;BME280;52445;52.466;-1.016;2022-09-25T11:04:05;100512.47;;;18.56;48.44
65718;BME280;52445;52.466;-1.016;2022-09-25T11:06:33;100520.09;;;18.64;47.99
65718;BME280;52445;52.466;-1.016;2022-09-25T11:11:39;100513.53;;;18.81;48.06
65718;BME280;52445;52.466;-1.016;2022-09-25T11:14:30;100512.28;;;18.93;47.67
65718;BME280;52445;52.466;-1.016;2022-09-25T11:17:00;100515.47;;;19.02;47.46
65718;BME280;52445;52.466;-1.016;2022-09-25T11:19:32;100509.13;;;19.11;46.72
65718;BME280;52445;52.466;-1.016;2022-09-25T11:27:53;100494.13;;;19.15;45.39
65718;BME280;52445;52.466;-1.016;2022-09-25T11:30:22;100496.03;;;19.10;45.24
65718;BME280;52445;52.466;-1.016;2022-09-25T11:33:11;100496.16;;;19.05;44.83
65718;BME280;52445;52.466;-1.016;2022-09-25T11:38:40;100497.19;;;18.99;44.95
65718;BME280;52445;52.466;-1.016;2022-09-25T11:41:49;100493.06;;;18.92;45.22
65718;BME280;52445;52.466;-1.016;2022-09-25T11:44:28;100484.63;;;18.82;44.53
65718;BME280;52445;52.466;-1.016;2022-09-25T11:47:07;100485.59;;;18.78;45.71
65718;BME280;52445;52.466;-1.016;2022-09-25T12:00:51;100448.19;;;18.71;43.71
65718;BME280;52445;52.466;-1.016;2022-09-25T12:11:31;100444.47;;;18.79;44.65
65718;BME280;52445;52.466;-1.016;2022-09-25T12:36:43;100409.25;;;18.57;42.00
65718;BME280;52445;52.466;-1.016;2022-09-25T12:39:34;100407.06;;;18.43;42.57
65718;BME280;52445;52.466;-1.016;2022-09-25T12:47:36;100382.84;;;18.35;42.49
65718;BME280;52445;52.466;-1.016;2022-09-25T12:53:08;100387.69;;;18.47;44.00
65718;BME280;52445;52.466;-1.016;2022-09-25T12:55:42;100390.19;;;18.52;43.08
65718;BME280;52445;52.466;-1.016;2022-09-25T12:58:28;100378.75;;;18.55;43.68
65718;BME280;52445;52.466;-1.016;2022-09-25T13:01:04;100382.91;;;18.62;43.65
65718;BME280;52445;52.466;-1.016;2022-09-25T13:03:51;100376.81;;;18.60;44.20
65718;BME280;52445;52.466;-1.016;2022-09-25T13:06:30;100373.53;;;18.53;43.09
65718;BME280;52445;52.466;-1.016;2022-09-25T13:14:41;100363.97;;;18.22;43.70
65718;BME280;52445;52.466;-1.016;2022-09-25T13:17:11;100350.28;;;18.12;43.25
65718;BME280;52445;52.466;-1.016;2022-09-25T13:19:39;100354.75;;;18.08;43.54
65718;BME280;52445;52.466;-1.016;2022-09-25T13:25:13;100348.00;;;17.99;44.27
65718;BME280;52445;52.466;-1.016;2022-09-25T13:27:44;100343.47;;;18.05;43.75
65718;BME280;52445;52.466;-1.016;2022-09-25T13:30:21;100349.59;;;18.05;44.43
65718;BME280;52445;52.466;-1.016;2022-09-25T13:32:51;100339.88;;;18.09;45.31
65718;BME280;52445;52.466;-1.016;2022-09-25T13:35:20;100338.88;;;18.13;44.88
65718;BME280;52445;52.466;-1.016;2022-09-25T13:37:50;100332.66;;;18.17;44.52
65718;BME280;52445;52.466;-1.016;2022-09-25T13:40:21;100330.06;;;18.16;44.80
65718;BME280;52445;52.466;-1.016;2022-09-25T13:52:00;100324.81;;;18.16;44.73
65718;BME280;52445;52.466;-1.016;2022-09-25T13:54:26;100316.84;;;18.20;45.10
65718;BME280;52445;52.466;-1.016;2022-09-25T13:56:54;100305.41;;;18.23;45.07
65718;BME280;52445;52.466;-1.016;2022-09-25T13:59:38;100307.97;;;18.24;44.53
65718;BME280;52445;52.466;-1.016;2022-09-25T14:02:25;100299.31;;;18.22;44.97
65718;BME280;52445;52.466;-1.016;2022-09-25T14:04:59;100299.84;;;18.34;44.83
65718;BME280;52445;52.466;-1.016;2022-09-25T14:07:26;100297.22;;;18.34;44.43
65718;BME280;52445;52.466;-1.016;2022-09-25T14:09:55;100297.25;;;18.32;45.19
65718;BME280;52445;52.466;-1.016;2022-09-25T14:12:44;100295.78;;;18.23;43.86
65718;BME280;52445;52.466;-1.016;2022-09-25T14:15:19;100298.50;;;18.20;44.19
65718;BME280;52445;52.466;-1.016;2022-09-25T14:17:49;100304.72;;;18.16;44.39
65718;BME280;52445;52.466;-1.016;2022-09-25T14:20:32;100301.44;;;18.08;44.08
65718;BME280;52445;52.466;-1.016;2022-09-25T14:23:04;100303.25;;;18.06;45.17
65718;BME280;52445;52.466;-1.016;2022-09-25T14:25:34;100301.53;;;18.05;45.18
65718;BME280;52445;52.466;-1.016;2022-09-25T14:28:17;100294.75;;;17.97;44.54
65718;BME280;52445;52.466;-1.016;2022-09-25T14:34:11;100287.97;;;17.90;45.31
65718;BME280;52445;52.466;-1.016;2022-09-25T14:39:43;100275.03;;;17.85;45.96
65718;BME280;52445;52.466;-1.016;2022-09-25T14:47:43;100256.53;;;18.20;45.26
65718;BME280;52445;52.466;-1.016;2022-09-25T14:50:20;100252.84;;;17.97;45.44
65718;BME280;52445;52.466;-1.016;2022-09-25T14:52:47;100246.94;;;17.91;45.27
65718;BME280;52445;52.466;-1.016;2022-09-25T14:55:16;100246.06;;;17.90;45.08
65718;BME280;52445;52.466;-1.016;2022-09-25T14:57:47;100232.16;;;17.88;45.00
65718;BME280;52445;52.466;-1.016;2022-09-25T15:00:17;100236.50;;;17.89;45.96
65718;BME280;52445;52.466;-1.016;2022-09-25T15:02:46;100228.63;;;17.89;45.56
65718;BME280;52445;52.466;-1.016;2022-09-25T15:05:17;100220.06;;;17.84;46.03
65718;BME280;52445;52.466;-1.016;2022-09-25T15:07:45;100223.78;;;17.77;46.13
65718;BME280;52445;52.466;-1.016;2022-09-25T15:10:35;100219.00;;;17.61;45.77
65718;BME280;52445;52.466;-1.016;2022-09-25T15:13:19;100216.63;;;17.52;46.29
65718;BME280;52445;52.466;-1.016;2022-09-25T15:15:52;100202.56;;;17.56;46.36
65718;BME280;52445;52.466;-1.016;2022-09-25T15:18:41;100198.13;;;17.58;45.98
65718;BME280;52445;52.466;-1.016;2022-09-25T15:21:25;100193.97;;;17.51;46.23
65718;BME280;52445;52.466;-1.016;2022-09-25T15:23:56;100194.72;;;17.56;46.59
65718;BME280;52445;52.466;-1.016;2022-09-25T15:26:24;100192.13;;;17.54;45.77
65718;BME280;52445;52.466;-1.016;2022-09-25T15:28:54;100191.34;;;17.51;46.11
65718;BME280;52445;52.466;-1.016;2022-09-25T15:31:21;100184.56;;;17.43;46.49
65718;BME280;52445;52.466;-1.016;2022-09-25T15:34:09;100180.47;;;17.34;46.62
65718;BME280;52445;52.466;-1.016;2022-09-25T15:36:36;100183.03;;;17.36;46.69
65718;BME280;52445;52.466;-1.016;2022-09-25T15:39:12;100179.66;;;17.32;46.62
65718;BME280;52445;52.466;-1.016;2022-09-25T15:41:41;100176.94;;;17.36;46.49
65718;BME280;52445;52.466;-1.016;2022-09-25T15:44:13;100170.84;;;17.35;46.56
65718;BME280;52445;52.466;-1.016;2022-09-25T15:46:46;100171.81;;;17.32;46.71
65718;BME280;52445;52.466;-1.016;2022-09-25T15:49:17;100169.16;;;17.34;46.52
65718;BME280;52445;52.466;-1.016;2022-09-25T15:51:50;100162.28;;;17.30;46.15
65718;BME280;52445;52.466;-1.016;2022-09-25T15:54:41;100146.94;;;17.17;46.59
65718;BME280;52445;52.466;-1.016;2022-09-25T15:57:12;100149.56;;;17.17;46.52
65718;BME280;52445;52.466;-1.016;2022-09-25T15:59:47;100144.47;;;17.11;46.85